Time;durP1;ratioP1;P1;durP2;ratioP2;P2;SDS_P1;SDS_P2;PMS_P1;PMS_P2;Temp;Humidity;BMP_temperature;BMP_pressure;BME280_temperature;BME280_humidity;BME280_pressure;Samples;Min_cycle;Max_cycle;Signal;HPM_P1;HPM_P2
2023/07/04 00:01:24;;;;;;;2.53;1.80;;;16.90;99.90;;;;;;5052093;28;20420;-71
2023/07/04 00:03:55;;;;;;;5.03;2.47;;;16.90;99.90;;;;;;5052202;28;20408;-70
2023/07/04 00:06:23;;;;;;;6.67;2.77;;;16.90;99.90;;;;;;5051752;28;20421;-71
2023/07/04 00:08:50;;;;;;;3.50;1.57;;;16.80;99.90;;;;;;5052187;28;20457;-70
2023/07/04 00:11:18;;;;;;;3.60;1.80;;;16.90;99.90;;;;;;5052110;28;20488;-72
2023/07/04 00:13:44;;;;;;;3.70;1.67;;;16.80;99.90;;;;;;5052031;28;20417;-72
2023/07/04 00:16:13;;;;;;;2.80;1.97;;;16.80;99.90;;;;;;5051819;28;20930;-70
2023/07/04 00:18:40;;;;;;;3.43;1.70;;;16.80;99.90;;;;;;5052183;28;20447;-71
2023/07/04 00:21:12;;;;;;;4.87;2.20;;;16.80;99.90;;;;;;5052165;28;20413;-72
2023/07/04 00:23:38;;;;;;;6.60;2.40;;;16.70;99.90;;;;;;5052082;28;20405;-71
2023/07/04 00:26:06;;;;;;;4.20;2.00;;;16.60;99.90;;;;;;5051467;28;20405;-71
2023/07/04 00:28:33;;;;;;;4.03;2.00;;;16.60;99.90;;;;;;5051802;28;20543;-71
2023/07/04 00:31:02;;;;;;;6.30;2.20;;;16.60;99.90;;;;;;5052455;28;20405;-71
2023/07/04 00:33:28;;;;;;;3.10;2.20;;;16.60;99.90;;;;;;5052018;28;20409;-71
2023/07/04 00:36:05;;;;;;;6.10;2.40;;;16.60;99.90;;;;;;5051568;28;20398;-71
2023/07/04 00:38:33;;;;;;;3.10;1.90;;;16.60;99.90;;;;;;5051600;28;20436;-71
2023/07/04 00:41:01;;;;;;;4.37;2.00;;;16.50;99.90;;;;;;5051832;28;20910;-71
2023/07/04 00:43:45;;;;;;;6.23;1.97;;;16.50;99.90;;;;;;5051894;28;20778;-72
2023/07/04 00:46:15;;;;;;;3.40;2.00;;;16.50;99.90;;;;;;5051436;28;20496;-72
2023/07/04 00:48:44;;;;;;;4.60;1.97;;;16.50;99.90;;;;;;5051738;28;20914;-71
2023/07/04 00:51:21;;;;;;;4.03;1.63;;;16.40;99.90;;;;;;5051693;28;20401;-71
2023/07/04 00:53:56;;;;;;;4.43;1.90;;;16.40;99.90;;;;;;5051981;28;20393;-70
2023/07/04 00:56:25;;;;;;;3.00;2.00;;;16.40;99.90;;;;;;5051325;28;20480;-71
2023/07/04 00:58:53;;;;;;;6.20;2.10;;;16.30;99.90;;;;;;5051620;28;20409;-71
2023/07/04 01:01:19;;;;;;;3.97;1.70;;;16.40;99.90;;;;;;5050174;28;20449;-71
2023/07/04 01:03:46;;;;;;;4.00;2.20;;;16.30;99.90;;;;;;5051854;28;20413;-72
2023/07/04 01:06:21;;;;;;;2.30;1.73;;;16.30;99.90;;;;;;5050944;28;20422;-70
2023/07/04 01:08:55;;;;;;;3.13;1.90;;;16.30;99.90;;;;;;5051469;28;20960;-71
2023/07/04 01:11:29;;;;;;;2.90;1.67;;;16.20;99.90;;;;;;5055379;28;20872;-72
2023/07/04 01:13:55;;;;;;;3.57;1.70;;;16.20;99.90;;;;;;5055312;28;20420;-71
2023/07/04 01:16:22;;;;;;;3.33;2.63;;;16.20;99.90;;;;;;5054805;28;20475;-73
2023/07/04 01:18:50;;;;;;;11.70;2.00;;;16.10;99.90;;;;;;5055135;28;20459;-72
2023/07/04 01:21:18;;;;;;;4.60;2.10;;;16.00;99.90;;;;;;5055122;28;20397;-72
2023/07/04 01:23:54;;;;;;;7.87;2.03;;;16.00;99.90;;;;;;5055133;28;20405;-71
2023/07/04 01:26:30;;;;;;;7.83;2.50;;;15.90;99.90;;;;;;5054815;28;20415;-71
2023/07/04 01:28:56;;;;;;;4.17;2.10;;;15.90;99.90;;;;;;5055175;28;20948;-72
2023/07/04 01:31:25;;;;;;;5.50;2.10;;;15.90;99.90;;;;;;5054849;28;20393;-72
2023/07/04 01:33:51;;;;;;;5.60;2.10;;;15.90;99.90;;;;;;5054635;28;20393;-72
2023/07/04 01:36:20;;;;;;;3.47;2.00;;;15.80;99.90;;;;;;5054498;28;20397;-71
2023/07/04 01:38:46;;;;;;;7.03;2.20;;;15.70;99.90;;;;;;5054838;28;20505;-71
2023/07/04 01:41:12;;;;;;;6.83;3.37;;;15.80;99.90;;;;;;5054762;28;20430;-72
2023/07/04 01:43:39;;;;;;;8.33;1.90;;;15.70;99.90;;;;;;5054658;28;20909;-71
2023/07/04 01:46:04;;;;;;;7.90;2.67;;;15.70;99.90;;;;;;5054399;28;20163;-71
2023/07/04 01:48:31;;;;;;;11.40;2.50;;;15.70;99.90;;;;;;5054496;28;20456;-72
2023/07/04 01:50:56;;;;;;;3.17;2.23;;;15.60;99.90;;;;;;5054678;28;20167;-72
2023/07/04 01:53:22;;;;;;;5.43;2.20;;;15.60;99.90;;;;;;5053185;28;20413;-71
2023/07/04 01:55:48;;;;;;;3.63;1.60;;;15.60;99.90;;;;;;5053907;28;20168;-70
2023/07/04 01:58:13;;;;;;;5.37;1.90;;;15.60;99.90;;;;;;5054419;28;20536;-70
2023/07/04 02:00:39;;;;;;;13.17;4.47;;;15.60;99.90;;;;;;5054664;28;20249;-71
2023/07/04 02:03:05;;;;;;;3.37;2.20;;;15.50;99.90;;;;;;5054832;28;20202;-71
2023/07/04 02:05:31;;;;;;;3.27;1.60;;;15.50;99.90;;;;;;5054170;28;20171;-72
2023/07/04 02:07:57;;;;;;;2.80;1.80;;;15.50;99.90;;;;;;5052599;28;20499;-71
2023/07/04 02:10:22;;;;;;;3.10;2.07;;;15.50;99.90;;;;;;5054236;28;20406;-71
2023/07/04 02:12:49;;;;;;;5.37;2.53;;;15.50;99.90;;;;;;5052964;28;20201;-71
2023/07/04 02:15:15;;;;;;;19.10;2.27;;;15.40;99.90;;;;;;5053781;28;20492;-71
2023/07/04 02:17:41;;;;;;;4.27;2.13;;;15.40;99.90;;;;;;5054053;28;20417;-72
2023/07/04 02:20:07;;;;;;;4.17;2.87;;;15.30;99.90;;;;;;5053497;28;20603;-73
2023/07/04 02:22:33;;;;;;;11.00;2.47;;;15.30;99.90;;;;;;5053983;28;20194;-72
2023/07/04 02:24:59;;;;;;;11.23;2.40;;;15.20;99.90;;;;;;5053701;28;20809;-71
2023/07/04 02:27:24;;;;;;;8.00;3.97;;;15.20;99.90;;;;;;5053738;28;20467;-70
2023/07/04 02:29:50;;;;;;;6.53;2.00;;;15.20;99.90;;;;;;5053696;28;20572;-71
2023/07/04 02:32:16;;;;;;;8.77;2.17;;;15.10;99.90;;;;;;5053772;28;20167;-71
2023/07/04 02:34:41;;;;;;;7.10;2.30;;;15.10;99.90;;;;;;5053723;28;20182;-72
2023/07/04 02:37:07;;;;;;;4.20;2.30;;;15.10;99.90;;;;;;5052127;28;20546;-72
2023/07/04 02:39:32;;;;;;;9.23;3.73;;;15.10;99.90;;;;;;5053541;28;20171;-71
2023/07/04 02:41:58;;;;;;;5.57;1.80;;;15.10;99.90;;;;;;5053707;28;20702;-71
2023/07/04 02:44:23;;;;;;;3.40;2.03;;;15.00;99.90;;;;;;5053519;28;20167;-71
2023/07/04 02:46:49;;;;;;;6.27;2.67;;;15.00;99.90;;;;;;5053133;28;20202;-71
2023/07/04 02:49:15;;;;;;;3.47;1.80;;;15.00;99.90;;;;;;5053441;28;20202;-71
2023/07/04 02:51:40;;;;;;;8.50;3.20;;;15.00;99.90;;;;;;5053527;28;20189;-71
2023/07/04 02:54:06;;;;;;;9.07;2.30;;;15.00;99.90;;;;;;5053345;28;20173;-72
2023/07/04 02:56:31;;;;;;;8.77;3.03;;;15.10;99.90;;;;;;5052827;28;20186;-71
2023/07/04 02:58:57;;;;;;;3.97;2.30;;;15.10;99.90;;;;;;5053121;28;20159;-71
2023/07/04 03:01:23;;;;;;;3.97;1.93;;;15.10;99.90;;;;;;5050814;28;20262;-71
2023/07/04 03:03:49;;;;;;;6.17;2.03;;;15.10;99.90;;;;;;5052048;28;20467;-72
2023/07/04 03:06:14;;;;;;;6.20;3.93;;;15.10;99.90;;;;;;5052327;28;20250;-71
2023/07/04 03:08:40;;;;;;;9.93;6.07;;;15.00;99.90;;;;;;5053029;28;20226;-71
2023/07/04 03:11:05;;;;;;;11.37;2.30;;;15.00;99.90;;;;;;5052769;28;20171;-71
2023/07/04 03:13:33;;;;;;;8.20;2.90;;;14.90;99.90;;;;;;5052196;28;20586;-71
2023/07/04 03:15:59;;;;;;;8.03;4.07;;;14.90;99.90;;;;;;5052582;28;20206;-71
2023/07/04 03:18:25;;;;;;;6.57;2.60;;;14.90;99.90;;;;;;5052936;28;20476;-72
2023/07/04 03:20:51;;;;;;;3.43;1.70;;;14.90;99.90;;;;;;5051972;28;20535;-72
2023/07/04 03:23:16;;;;;;;5.60;2.17;;;14.80;99.90;;;;;;5052891;28;20401;-72
2023/07/04 03:25:42;;;;;;;9.00;2.47;;;14.80;99.90;;;;;;5052574;28;20167;-71
2023/07/04 03:28:07;;;;;;;5.17;2.63;;;14.80;99.90;;;;;;5052734;28;20198;-71
2023/07/04 03:30:33;;;;;;;3.77;2.23;;;14.80;99.90;;;;;;5052688;28;20536;-72
2023/07/04 03:32:58;;;;;;;3.70;2.70;;;14.70;99.90;;;;;;5051962;28;20171;-72
2023/07/04 03:35:24;;;;;;;9.83;2.33;;;14.70;99.90;;;;;;5052930;28;20163;-71
2023/07/04 03:37:50;;;;;;;4.93;2.40;;;14.60;99.90;;;;;;5052331;28;20183;-71
2023/07/04 03:40:16;;;;;;;6.20;1.70;;;14.70;99.90;;;;;;5052604;28;20898;-71
2023/07/04 03:42:41;;;;;;;9.27;2.43;;;14.70;99.90;;;;;;5052594;28;20205;-72
2023/07/04 03:45:07;;;;;;;6.10;2.27;;;14.70;99.90;;;;;;5052371;28;20175;-72
2023/07/04 03:47:33;;;;;;;5.40;2.40;;;14.70;99.90;;;;;;5052571;28;20224;-72
2023/07/04 03:49:59;;;;;;;6.77;2.03;;;14.60;99.90;;;;;;5052366;28;20445;-73
2023/07/04 03:52:24;;;;;;;3.57;2.80;;;14.60;99.90;;;;;;5052147;28;20167;-72
2023/07/04 03:54:50;;;;;;;7.03;2.27;;;14.60;99.90;;;;;;5052331;28;20216;-71
2023/07/04 03:57:16;;;;;;;10.73;2.17;;;14.50;99.90;;;;;;5052049;28;20183;-72
2023/07/04 03:59:42;;;;;;;10.67;3.73;;;14.60;99.90;;;;;;5052406;28;20695;-71
2023/07/04 04:02:08;;;;;;;7.03;2.70;;;14.60;99.90;;;;;;5052141;28;20497;-72
2023/07/04 04:04:38;;;;;;;7.67;3.23;;;14.60;99.90;;;;;;5052360;28;20170;-72
2023/07/04 04:07:09;;;;;;;8.40;2.67;;;14.60;99.90;;;;;;5051636;28;21026;-71
2023/07/04 04:09:36;;;;;;;10.30;2.50;;;14.60;99.90;;;;;;5052141;28;20528;-71
2023/07/04 04:12:02;;;;;;;3.87;2.00;;;14.60;99.90;;;;;;5050862;28;20405;-72
2023/07/04 04:14:29;;;;;;;5.10;2.40;;;14.60;99.90;;;;;;5052084;28;20530;-71
2023/07/04 04:16:56;;;;;;;7.03;2.57;;;14.60;99.90;;;;;;5051884;28;20422;-71
2023/07/04 04:19:22;;;;;;;6.83;2.97;;;14.60;99.90;;;;;;5052214;28;20782;-72
2023/07/04 04:21:48;;;;;;;4.00;2.30;;;14.60;99.90;;;;;;5052209;28;20413;-72
2023/07/04 04:24:13;;;;;;;12.70;2.80;;;14.70;99.90;;;;;;5052355;28;20225;-71
2023/07/04 04:26:40;;;;;;;8.90;2.37;;;14.60;99.90;;;;;;5051627;28;20225;-71
2023/07/04 04:29:06;;;;;;;8.73;3.53;;;14.70;99.90;;;;;;5051886;28;20563;-71
2023/07/04 04:31:37;;;;;;;5.17;3.10;;;14.70;99.90;;;;;;5052028;28;20421;-73
2023/07/04 04:34:05;;;;;;;5.57;3.03;;;14.80;99.90;;;;;;5050572;28;20492;-71
2023/07/04 04:36:31;;;;;;;7.67;2.73;;;14.80;99.90;;;;;;5051524;28;20814;-71
2023/07/04 04:38:59;;;;;;;7.10;1.90;;;14.80;99.90;;;;;;5050660;28;20409;-71
2023/07/04 04:41:24;;;;;;;3.90;2.10;;;14.80;99.90;;;;;;5051869;28;20455;-72
2023/07/04 04:43:50;;;;;;;6.73;2.23;;;14.80;99.90;;;;;;5053455;28;20450;-71
2023/07/04 04:46:16;;;;;;;6.87;2.90;;;14.80;99.90;;;;;;5055064;28;20169;-71
2023/07/04 04:48:42;;;;;;;4.83;1.90;;;14.80;99.90;;;;;;5055747;28;20194;-71
2023/07/04 04:51:12;;;;;;;7.53;2.47;;;14.80;99.90;;;;;;5055902;28;20478;-71
2023/07/04 04:53:40;;;;;;;2.53;1.73;;;14.80;99.90;;;;;;5055812;28;20401;-72
2023/07/04 04:56:07;;;;;;;4.63;2.60;;;14.90;99.90;;;;;;5055605;28;20412;-72
2023/07/04 04:58:32;;;;;;;5.57;2.43;;;14.90;99.90;;;;;;5055805;28;20423;-70
2023/07/04 05:01:17;;;;;;;7.40;2.70;;;15.00;99.90;;;;;;5054545;28;20795;-71
2023/07/04 05:03:43;;;;;;;5.00;2.07;;;15.00;99.90;;;;;;5055672;28;20167;-71
2023/07/04 05:06:09;;;;;;;6.37;2.30;;;15.10;99.90;;;;;;5055551;28;20405;-72
2023/07/04 05:08:35;;;;;;;4.83;2.60;;;15.20;99.90;;;;;;5054269;28;20479;-71
2023/07/04 05:11:07;;;;;;;10.03;2.40;;;15.30;99.90;;;;;;5055578;28;20242;-71
2023/07/04 05:13:37;;;;;;;5.70;3.13;;;15.30;99.90;;;;;;5055732;28;20166;-72
2023/07/04 05:16:05;;;;;;;6.80;2.60;;;15.40;99.90;;;;;;5055097;28;20448;-71
2023/07/04 05:18:32;;;;;;;8.70;2.20;;;15.60;99.90;;;;;;5055293;28;20421;-71
2023/07/04 05:21:01;;;;;;;4.93;2.50;;;15.60;99.90;;;;;;5055352;28;20460;-72
2023/07/04 05:23:29;;;;;;;1.83;1.70;;;15.70;99.90;;;;;;5055794;28;20496;-73
2023/07/04 05:26:14;;;;;;;5.63;2.50;;;15.70;99.90;;;;;;5055248;28;20397;-71
2023/07/04 05:28:40;;;;;;;5.20;2.40;;;15.90;99.90;;;;;;5054776;28;20458;-70
2023/07/04 05:31:15;;;;;;;5.23;2.13;;;15.90;99.90;;;;;;5054900;28;20405;-69
2023/07/04 05:33:40;;;;;;;4.80;2.27;;;16.10;99.90;;;;;;5054921;28;20396;-69
2023/07/04 05:36:12;;;;;;;4.87;2.03;;;16.30;99.90;;;;;;5053292;28;20409;-69
2023/07/04 05:38:39;;;;;;;5.23;2.97;;;16.60;99.90;;;;;;5054657;28;20434;-70
2023/07/04 05:41:12;;;;;;;5.37;2.40;;;16.80;99.90;;;;;;5054652;28;20410;-70
2023/07/04 05:43:38;;;;;;;4.33;2.33;;;17.10;99.90;;;;;;5054681;28;20413;-70
2023/07/04 05:46:04;;;;;;;7.00;3.00;;;17.40;99.90;;;;;;5054413;28;20401;-71
2023/07/04 05:48:29;;;;;;;3.63;2.33;;;17.60;99.90;;;;;;5054457;28;20973;-71
2023/07/04 05:51:00;;;;;;;5.63;2.70;;;17.90;99.90;;;;;;5054641;28;20405;-70
2023/07/04 05:53:29;;;;;;;2.70;1.90;;;17.90;99.90;;;;;;5054581;28;20568;-72
2023/07/04 05:56:11;;;;;;;8.27;2.17;;;17.80;99.90;;;;;;5053384;28;20804;-70
2023/07/04 05:58:38;;;;;;;6.87;2.90;;;17.90;99.90;;;;;;5054426;28;20417;-70
2023/07/04 06:01:32;;;;;;;7.07;2.70;;;17.90;99.90;;;;;;5054422;28;20766;-71
2023/07/04 06:03:58;;;;;;;5.87;2.70;;;18.10;99.90;;;;;;5054484;28;20587;-70
2023/07/04 06:06:32;;;;;;;4.13;2.50;;;18.10;99.90;;;;;;5053851;28;20907;-73
2023/07/04 06:08:59;;;;;;;5.33;2.40;;;18.10;99.90;;;;;;5054262;28;20448;-70
2023/07/04 06:11:33;;;;;;;5.87;2.50;;;18.30;99.90;;;;;;5053949;28;20743;-71
2023/07/04 06:14:00;;;;;;;6.23;2.60;;;18.50;99.90;;;;;;5054283;28;20394;-71
2023/07/04 06:16:26;;;;;;;4.00;2.23;;;18.70;99.90;;;;;;5053818;28;20451;-70
2023/07/04 06:18:51;;;;;;;7.50;2.20;;;19.30;99.90;;;;;;5054167;28;20401;-71
2023/07/04 06:21:20;;;;;;;8.57;3.20;;;20.10;99.90;;;;;;5054103;28;20217;-71
2023/07/04 06:23:45;;;;;;;4.93;2.20;;;20.60;99.90;;;;;;5053983;28;20167;-71
2023/07/04 06:26:12;;;;;;;8.70;2.17;;;20.90;99.90;;;;;;5053675;28;20488;-71
2023/07/04 06:28:39;;;;;;;6.10;2.90;;;21.10;99.90;;;;;;5053724;28;20195;-71
2023/07/04 06:31:07;;;;;;;7.10;2.57;;;21.50;99.90;;;;;;5053906;28;20412;-70
2023/07/04 06:33:33;;;;;;;3.97;2.13;;;22.20;99.90;;;;;;5053895;28;20401;-70
2023/07/04 06:36:00;;;;;;;5.97;2.23;;;22.50;99.90;;;;;;5053636;28;20405;-71
2023/07/04 06:38:26;;;;;;;11.03;2.47;;;23.00;99.90;;;;;;5053600;28;20421;-70
2023/07/04 06:41:03;;;;;;;6.90;2.40;;;23.20;99.90;;;;;;5053529;28;20766;-70
2023/07/04 06:43:31;;;;;;;5.30;1.90;;;23.20;99.90;;;;;;5053573;28;20393;-72
2023/07/04 06:45:57;;;;;;;8.33;3.23;;;23.30;99.90;;;;;;5053311;28;20397;-70
2023/07/04 06:48:24;;;;;;;5.20;2.63;;;23.40;98.40;;;;;;5053359;28;20799;-70
2023/07/04 06:51:07;;;;;;;6.20;2.57;;;23.90;98.70;;;;;;5053462;28;20406;-71
2023/07/04 06:53:34;;;;;;;5.27;2.30;;;23.90;94.90;;;;;;5053346;28;20484;-71
2023/07/04 06:56:07;;;;;;;6.20;2.17;;;24.40;94.80;;;;;;5053034;28;20413;-70
2023/07/04 06:58:34;;;;;;;5.40;2.53;;;25.00;91.10;;;;;;5053226;28;20417;-71
2023/07/04 07:01:02;;;;;;;7.00;2.90;;;25.50;90.20;;;;;;5053226;28;20402;-71
2023/07/04 07:03:31;;;;;;;2.90;2.60;;;25.20;81.20;;;;;;5053185;28;20398;-70
2023/07/04 07:05:57;;;;;;;8.53;3.50;;;25.30;81.80;;;;;;5052434;28;20405;-71
2023/07/04 07:08:22;;;;;;;7.97;2.20;;;25.00;80.40;;;;;;5052811;28;20460;-72
2023/07/04 07:11:00;;;;;;;5.00;2.43;;;25.40;83.50;;;;;;5053001;28;20173;-71
2023/07/04 07:13:26;;;;;;;4.60;2.47;;;25.70;75.90;;;;;;5052776;28;20400;-71
2023/07/04 07:15:53;;;;;;;7.67;2.43;;;26.20;76.20;;;;;;5052634;28;20443;-71
2023/07/04 07:18:18;;;;;;;10.10;2.70;;;26.60;70.20;;;;;;5052817;28;20185;-72
2023/07/04 07:20:44;;;;;;;3.63;1.90;;;26.10;68.40;;;;;;5052835;28;20870;-70
2023/07/04 07:23:10;;;;;;;6.03;2.40;;;26.40;68.90;;;;;;5052831;28;20261;-71
2023/07/04 07:25:36;;;;;;;15.57;2.30;;;26.50;65.90;;;;;;5052583;28;20155;-71
2023/07/04 07:28:02;;;;;;;4.10;2.20;;;27.30;64.00;;;;;;5052642;28;20421;-72
2023/07/04 07:30:28;;;;;;;4.47;2.50;;;27.50;60.50;;;;;;5052671;28;20405;-71
2023/07/04 07:32:53;;;;;;;4.70;2.73;;;28.10;60.00;;;;;;5052766;28;20519;-71
2023/07/04 07:35:19;;;;;;;6.67;2.73;;;28.80;57.10;;;;;;5052301;28;20708;-72
2023/07/04 07:37:44;;;;;;;6.63;2.40;;;29.70;56.10;;;;;;5052456;28;20187;-70
2023/07/04 07:40:10;;;;;;;5.37;2.40;;;30.60;52.90;;;;;;5052600;28;20163;-71
2023/07/04 07:42:36;;;;;;;3.00;2.43;;;30.90;51.80;;;;;;5052658;28;20178;-72
2023/07/04 07:45:02;;;;;;;5.50;2.80;;;31.20;48.80;;;;;;5052310;28;20406;-72
2023/07/04 07:47:27;;;;;;;5.50;2.53;;;32.20;47.80;;;;;;5052318;28;20209;-71
2023/07/04 07:49:54;;;;;;;3.33;2.27;;;32.30;45.90;;;;;;5052288;28;20285;-68
2023/07/04 07:52:20;;;;;;;3.63;1.93;;;31.50;44.60;;;;;;5052300;28;20170;-69
2023/07/04 07:54:46;;;;;;;3.90;2.23;;;31.30;46.70;;;;;;5052323;28;20492;-69
2023/07/04 07:57:11;;;;;;;3.90;1.80;;;31.00;44.10;;;;;;5052099;28;20508;-70
2023/07/04 07:59:37;;;;;;;6.63;2.73;;;30.40;44.10;;;;;;5052371;28;20293;-70
2023/07/04 08:02:03;;;;;;;5.57;2.30;;;30.10;43.80;;;;;;5052210;28;20528;-69
2023/07/04 08:04:28;;;;;;;7.10;2.27;;;30.60;45.40;;;;;;5052132;28;20202;-70
2023/07/04 08:06:54;;;;;;;4.17;2.43;;;31.10;43.60;;;;;;5051623;28;20905;-70
2023/07/04 08:09:20;;;;;;;5.27;2.80;;;31.80;43.80;;;;;;5052124;28;20243;-70
2023/07/04 08:11:46;;;;;;;9.43;2.23;;;31.10;41.70;;;;;;5052064;28;20409;-69
2023/07/04 08:14:13;;;;;;;4.83;2.60;;;31.40;42.80;;;;;;5052056;28;20202;-71
2023/07/04 08:16:45;;;;;;;5.23;2.53;;;31.80;40.80;;;;;;5051655;28;20425;-71
2023/07/04 08:19:12;;;;;;;6.50;2.87;;;32.30;40.90;;;;;;5050199;28;20467;-70
2023/07/04 08:21:38;;;;;;;5.60;2.20;;;33.40;40.10;;;;;;5051873;28;20412;-69
2023/07/04 08:24:10;;;;;;;4.83;2.30;;;34.10;39.60;;;;;;5052097;28;20405;-71
2023/07/04 08:26:36;;;;;;;4.20;2.60;;;34.60;38.10;;;;;;5051590;28;20167;-71
2023/07/04 08:29:02;;;;;;;3.60;2.17;;;35.50;37.50;;;;;;5051785;28;21027;-70
2023/07/04 08:31:28;;;;;;;3.77;2.33;;;36.00;33.80;;;;;;5051779;28;20436;-71
2023/07/04 08:33:54;;;;;;;5.57;1.90;;;35.70;32.10;;;;;;5051650;28;20817;-70
2023/07/04 08:36:20;;;;;;;5.10;2.10;;;34.10;32.60;;;;;;5051515;28;20171;-71
2023/07/04 08:38:48;;;;;;;3.67;1.90;;;33.80;33.80;;;;;;5051539;28;20416;-70
2023/07/04 08:41:36;;;;;;;3.37;1.90;;;34.20;33.70;;;;;;5051948;28;20401;-71
2023/07/04 08:44:07;;;;;;;3.63;2.00;;;34.10;32.50;;;;;;5048184;28;20417;-70
2023/07/04 08:46:47;;;;;;;2.63;1.60;;;34.40;32.40;;;;;;5050012;28;20467;-71
2023/07/04 08:49:29;;;;;;;4.10;2.67;;;35.50;33.40;;;;;;5051591;28;20506;-70
2023/07/04 08:52:02;;;;;;;3.33;2.27;;;36.90;31.60;;;;;;5051717;28;20468;-71
2023/07/04 08:54:28;;;;;;;3.83;2.40;;;37.60;29.60;;;;;;5051930;28;20404;-70
2023/07/04 08:56:58;;;;;;;3.10;2.57;;;37.80;29.50;;;;;;5051163;28;20463;-70
2023/07/04 08:59:38;;;;;;;3.53;2.40;;;38.50;28.50;;;;;;5051586;28;20397;-71
2023/07/04 09:02:42;;;;;;;3.50;2.93;;;38.20;28.50;;;;;;5051534;28;20401;-70
2023/07/04 09:05:18;;;;;;;4.40;2.93;;;38.90;28.50;;;;;;5051073;28;20381;-71
2023/07/04 09:07:50;;;;;;;3.63;2.43;;;37.80;27.60;;;;;;5051243;28;20502;-70
2023/07/04 09:10:28;;;;;;;6.60;2.63;;;38.60;29.40;;;;;;5051484;28;20443;-71
2023/07/04 09:12:54;;;;;;;3.00;2.70;;;40.30;29.70;;;;;;5051167;28;20403;-71
2023/07/04 09:15:38;;;;;;;5.10;3.00;;;40.60;27.30;;;;;;5051046;28;20380;-71
2023/07/04 09:18:33;;;;;;;4.20;2.87;;;40.90;26.80;;;;;;5051269;28;20189;-70
2023/07/04 09:21:14;;;;;;;4.10;3.10;;;40.70;26.60;;;;;;5051259;28;20393;-70
2023/07/04 09:23:41;;;;;;;5.60;2.97;;;40.10;25.50;;;;;;5051342;28;20409;-71
2023/07/04 09:26:11;;;;;;;3.33;2.47;;;40.20;26.10;;;;;;5051063;28;20821;-71
2023/07/04 09:28:40;;;;;;;7.17;2.87;;;39.20;26.80;;;;;;5051138;28;20530;-72
2023/07/04 09:31:13;;;;;;;3.10;2.53;;;39.20;28.30;;;;;;5053878;28;20769;-71
2023/07/04 09:33:40;;;;;;;4.03;2.57;;;39.30;28.00;;;;;;5054875;28;20409;-70
2023/07/04 09:36:09;;;;;;;3.40;2.80;;;39.80;26.30;;;;;;5055385;28;20444;-70
2023/07/04 09:38:55;;;;;;;6.47;2.80;;;40.40;26.30;;;;;;5055324;28;20436;-71
2023/07/04 09:41:26;;;;;;;6.23;3.50;;;41.60;27.20;;;;;;5055716;28;20425;-71
2023/07/04 09:43:54;;;;;;;4.90;2.63;;;42.30;25.90;;;;;;5054738;28;20802;-71
2023/07/04 09:46:25;;;;;;;3.83;2.77;;;41.40;25.00;;;;;;5054997;28;20409;-71
2023/07/04 09:48:51;;;;;;;5.13;2.77;;;39.50;25.30;;;;;;5054173;28;20827;-71
2023/07/04 09:51:22;;;;;;;5.13;2.97;;;37.70;25.90;;;;;;5054052;28;20413;-72
2023/07/04 09:53:48;;;;;;;2.93;2.37;;;36.70;27.80;;;;;;5054998;28;20756;-71
2023/07/04 09:56:25;;;;;;;4.87;2.80;;;36.80;28.80;;;;;;5055243;28;20384;-70
2023/07/04 09:59:18;;;;;;;5.80;3.30;;;37.10;27.70;;;;;;5054934;28;20171;-71
2023/07/04 10:01:46;;;;;;;4.90;3.00;;;38.10;28.00;;;;;;5054530;28;20834;-72
2023/07/04 10:04:21;;;;;;;4.33;3.47;;;37.60;27.80;;;;;;5054329;28;20445;-70
2023/07/04 10:06:50;;;;;;;6.67;3.00;;;36.20;27.50;;;;;;5053920;28;20444;-71
2023/07/04 10:09:20;;;;;;;6.00;3.20;;;35.60;29.30;;;;;;5054126;28;20449;-71
2023/07/04 10:11:47;;;;;;;5.53;3.10;;;35.00;29.80;;;;;;5054199;28;20778;-71
2023/07/04 10:14:14;;;;;;;5.20;3.67;;;35.00;30.50;;;;;;5054149;28;20401;-68
2023/07/04 10:16:50;;;;;;;7.00;3.10;;;34.50;30.50;;;;;;5053720;28;20478;-68
2023/07/04 10:19:22;;;;;;;4.03;3.10;;;32.80;30.60;;;;;;5055888;28;20896;-68
2023/07/04 10:21:53;;;;;;;5.53;3.07;;;31.90;31.90;;;;;;5073975;28;20412;-67
2023/07/04 10:24:23;;;;;;;4.50;2.73;;;31.10;33.10;;;;;;5073518;28;20417;-69
2023/07/04 10:26:56;;;;;;;4.27;3.70;;;31.10;34.80;;;;;;5073033;28;20451;-68
2023/07/04 10:29:46;;;;;;;4.87;3.27;;;32.40;33.20;;;;;;5073469;28;20577;-68
2023/07/04 10:32:16;;;;;;;5.50;3.80;;;33.80;32.30;;;;;;5073648;28;20916;-68
2023/07/04 10:34:44;;;;;;;6.57;3.70;;;34.90;30.00;;;;;;5073295;28;20404;-68
2023/07/04 10:37:24;;;;;;;5.90;3.87;;;34.60;29.40;;;;;;5073286;28;20424;-69
2023/07/04 10:40:03;;;;;;;7.07;4.03;;;34.10;30.10;;;;;;5073343;28;20495;-70
2023/07/04 10:42:37;;;;;;;6.70;4.47;;;35.20;30.00;;;;;;5073205;28;20425;-69
2023/07/04 10:45:05;;;;;;;4.67;3.40;;;36.20;29.20;;;;;;5072801;28;20507;-68
2023/07/04 10:47:37;;;;;;;4.63;3.80;;;36.50;28.70;;;;;;5070692;28;20436;-69
2023/07/04 10:50:12;;;;;;;5.53;3.67;;;37.00;28.70;;;;;;5053356;28;20533;-69
2023/07/04 10:52:43;;;;;;;4.37;3.77;;;38.30;29.30;;;;;;5053405;28;20513;-70
2023/07/04 10:55:14;;;;;;;5.27;3.87;;;39.70;26.70;;;;;;5053039;28;20422;-69
2023/07/04 10:57:47;;;;;;;4.60;3.40;;;40.40;26.40;;;;;;5053230;28;20479;-69
2023/07/04 11:00:23;;;;;;;5.97;4.20;;;39.30;26.40;;;;;;5053188;28;20409;-68
2023/07/04 11:03:04;;;;;;;3.87;3.57;;;37.60;26.60;;;;;;5053040;28;20405;-68
2023/07/04 11:05:35;;;;;;;4.60;3.10;;;37.20;28.70;;;;;;5052883;28;20413;-69
2023/07/04 11:08:02;;;;;;;6.00;4.50;;;37.30;28.00;;;;;;5052770;28;20440;-69
2023/07/04 11:10:31;;;;;;;6.00;3.50;;;37.00;27.90;;;;;;5052908;28;20540;-69
2023/07/04 11:12:57;;;;;;;5.83;3.63;;;36.90;28.20;;;;;;5052869;28;20405;-68
2023/07/04 11:15:31;;;;;;;4.80;4.27;;;37.00;28.20;;;;;;5052660;28;20758;-70
2023/07/04 11:17:56;;;;;;;5.43;3.90;;;38.00;28.80;;;;;;5052717;28;20949;-70
2023/07/04 11:20:48;;;;;;;4.80;3.43;;;38.80;28.10;;;;;;5052789;28;20421;-71
2023/07/04 11:23:18;;;;;;;3.93;3.53;;;39.90;27.70;;;;;;5051292;28;20167;-72
2023/07/04 11:25:43;;;;;;;3.30;3.00;;;40.30;26.00;;;;;;5052667;28;20405;-70
2023/07/04 11:28:32;;;;;;;4.70;3.20;;;40.40;26.70;;;;;;5052447;28;20483;-71
2023/07/04 11:31:08;;;;;;;7.47;3.97;;;41.30;27.70;;;;;;5052427;28;20667;-69
2023/07/04 11:33:43;;;;;;;4.67;3.47;;;40.60;26.30;;;;;;5052599;28;20890;-69
2023/07/04 11:36:23;;;;;;;4.67;3.27;;;40.00;26.20;;;;;;5052254;28;20397;-69
2023/07/04 11:38:56;;;;;;;7.97;3.90;;;38.90;26.00;;;;;;5052373;28;20398;-72
2023/07/04 11:41:34;;;;;;;7.40;3.87;;;37.70;26.50;;;;;;5052419;28;20398;-69
2023/07/04 11:44:30;;;;;;;8.80;4.13;;;37.30;27.80;;;;;;5052484;28;20406;-69
2023/07/04 11:47:11;;;;;;;5.20;3.40;;;37.60;27.50;;;;;;5051504;28;20515;-69
2023/07/04 11:49:37;;;;;;;6.07;3.80;;;37.30;27.80;;;;;;5052139;28;20447;-71
2023/07/04 11:52:17;;;;;;;4.43;3.73;;;37.10;27.90;;;;;;5052298;28;20435;-71
2023/07/04 11:54:44;;;;;;;3.80;3.40;;;37.70;28.00;;;;;;5051695;28;20918;-70
2023/07/04 11:57:10;;;;;;;5.93;4.17;;;38.10;27.50;;;;;;5051818;28;20406;-69
2023/07/04 11:59:41;;;;;;;5.80;3.93;;;38.90;27.10;;;;;;5052185;28;20376;-70
2023/07/04 12:02:29;;;;;;;6.10;4.10;;;39.10;26.10;;;;;;5051936;28;20194;-71
2023/07/04 12:04:55;;;;;;;5.80;4.17;;;39.10;26.10;;;;;;5051924;28;20402;-70
2023/07/04 12:07:34;;;;;;;5.60;4.40;;;39.90;26.40;;;;;;5051716;28;20420;-70
2023/07/04 12:10:12;;;;;;;5.40;4.10;;;40.80;25.90;;;;;;5051963;28;20449;-69
2023/07/04 12:12:38;;;;;;;5.37;4.13;;;41.30;25.80;;;;;;5052189;28;20793;-71
2023/07/04 12:15:10;;;;;;;6.50;5.03;;;41.10;24.40;;;;;;5051699;28;20399;-71
2023/07/04 12:17:44;;;;;;;7.43;4.30;;;40.70;24.70;;;;;;5051864;28;20428;-71
2023/07/04 12:20:18;;;;;;;6.33;4.37;;;41.20;24.90;;;;;;5051928;28;20401;-69
2023/07/04 12:22:51;;;;;;;8.50;4.00;;;41.40;25.10;;;;;;5051977;28;20541;-71
2023/07/04 12:25:27;;;;;;;5.20;4.23;;;41.90;24.10;;;;;;5051561;28;20372;-70
2023/07/04 12:27:56;;;;;;;5.30;4.30;;;41.80;23.80;;;;;;5050548;28;20942;-70
2023/07/04 12:30:22;;;;;;;5.70;4.37;;;42.10;23.90;;;;;;5051785;28;20500;-70
2023/07/04 12:32:55;;;;;;;5.20;4.20;;;42.50;25.30;;;;;;5051913;28;20922;-71
2023/07/04 12:35:26;;;;;;;4.90;4.40;;;42.30;23.30;;;;;;5051570;28;20401;-71
2023/07/04 12:37:54;;;;;;;5.47;4.57;;;41.80;23.60;;;;;;5051732;28;20413;-72
2023/07/04 12:40:23;;;;;;;5.00;4.50;;;42.00;24.80;;;;;;5051677;28;20945;-70
2023/07/04 12:42:50;;;;;;;5.13;4.63;;;42.20;23.60;;;;;;5051626;28;20376;-70
2023/07/04 12:45:27;;;;;;;4.90;4.50;;;41.50;23.10;;;;;;5051347;28;20401;-71
2023/07/04 12:48:00;;;;;;;6.40;5.53;;;41.90;24.80;;;;;;5051552;28;20395;-70
2023/07/04 12:50:27;;;;;;;5.53;4.83;;;41.90;23.70;;;;;;5051360;28;20471;-70
2023/07/04 12:52:53;;;;;;;7.33;4.70;;;41.20;23.30;;;;;;5051386;28;20412;-71
2023/07/04 12:55:30;;;;;;;6.93;6.13;;;41.40;24.90;;;;;;5051329;28;20401;-70
2023/07/04 12:57:56;;;;;;;10.57;9.50;;;41.50;24.80;;;;;;5051538;28;20514;-70